Time;durP1;ratioP1;P1;durP2;ratioP2;P2;SDS_P1;SDS_P2;PMS_P1;PMS_P2;Temp;Humidity;BMP_temperature;BMP_pressure;BME280_temperature;BME280_humidity;BME280_pressure;Samples;Min_cycle;Max_cycle;Signal;HPM_P1;HPM_P2
2020/12/11 00:00:59;;;;;;;248.37;58.97;;;-1.00;99.90;;;;;;4358669;28;660692;-62
2020/12/11 00:03:47;;;;;;;238.67;57.77;;;-1.00;99.90;;;;;;4370814;28;660365;-61
2020/12/11 00:06:33;;;;;;;169.23;42.40;;;-1.00;99.90;;;;;;4354344;28;659592;-60
2020/12/11 00:09:20;;;;;;;146.40;36.93;;;-0.90;99.90;;;;;;4376263;28;661023;-62
2020/12/11 00:12:07;;;;;;;156.17;41.47;;;-0.90;99.90;;;;;;4358543;28;659639;-62
2020/12/11 00:14:54;;;;;;;207.40;52.30;;;-1.00;99.90;;;;;;4381604;28;661579;-61
2020/12/11 00:17:42;;;;;;;188.30;47.80;;;-1.00;99.90;;;;;;4371992;28;659680;-61
2020/12/11 00:20:29;;;;;;;189.33;49.63;;;-1.00;99.90;;;;;;4358345;28;661084;-61
2020/12/11 00:23:16;;;;;;;176.97;47.90;;;-1.00;99.90;;;;;;4371053;28;659206;-61
2020/12/11 00:26:03;;;;;;;170.32;45.25;;;-1.00;99.90;;;;;;4358627;28;660288;-61
2020/12/11 00:28:50;;;;;;;179.07;42.93;;;-1.00;99.90;;;;;;4374098;28;660412;-61
2020/12/11 00:31:38;;;;;;;184.27;43.37;;;-1.00;99.90;;;;;;4357917;28;659483;-62
2020/12/11 00:34:26;;;;;;;198.20;48.27;;;-1.00;99.90;;;;;;4374369;28;661015;-61
2020/12/11 00:37:13;;;;;;;190.87;47.60;;;-1.00;99.90;;;;;;4354994;28;660320;-61
2020/12/11 00:40:00;;;;;;;192.67;47.37;;;-0.90;99.90;;;;;;4374600;28;661406;-61
2020/12/11 00:42:47;;;;;;;1247.80;96.03;;;-0.90;99.90;;;;;;4357940;28;659684;-63
2020/12/11 00:45:34;;;;;;;188.83;46.07;;;-0.90;99.90;;;;;;4373014;28;660931;-60
2020/12/11 00:48:21;;;;;;;180.53;44.60;;;-0.90;99.90;;;;;;4377966;28;659632;-61
2020/12/11 00:51:09;;;;;;;176.52;43.55;;;-0.90;99.90;;;;;;4361640;28;659560;-61
2020/12/11 00:53:56;;;;;;;145.03;40.43;;;-0.90;99.90;;;;;;4463352;28;659731;-61
2020/12/11 00:56:43;;;;;;;159.77;40.33;;;-0.90;99.90;;;;;;4446672;28;659424;-61
2020/12/11 00:59:30;;;;;;;160.27;42.13;;;-0.90;99.90;;;;;;4467550;28;660538;-61
2020/12/11 01:02:17;;;;;;;142.60;38.60;;;-0.90;99.90;;;;;;4464368;28;661269;-62
2020/12/11 01:05:04;;;;;;;150.13;40.27;;;-0.90;99.90;;;;;;4447976;28;661716;-60
2020/12/11 01:07:52;;;;;;;149.13;39.20;;;-0.90;99.90;;;;;;4450461;28;658941;-61
2020/12/11 01:10:39;;;;;;;145.90;41.33;;;-0.90;99.90;;;;;;4432040;28;661519;-61
2020/12/11 01:13:26;;;;;;;144.10;39.53;;;-0.80;99.90;;;;;;4461686;28;659826;-61
2020/12/11 01:16:13;;;;;;;148.60;40.63;;;-0.80;99.90;;;;;;4444727;28;661296;-61
2020/12/11 01:19:00;;;;;;;153.13;39.87;;;-0.90;99.90;;;;;;4456636;28;660611;-61
2020/12/11 01:21:48;;;;;;;158.20;41.60;;;-0.90;99.90;;;;;;4455536;28;659565;-63
2020/12/11 01:24:35;;;;;;;167.40;42.73;;;-0.80;99.90;;;;;;4452173;28;660847;-61
2020/12/11 01:27:23;;;;;;;151.90;41.20;;;-0.80;99.90;;;;;;4438850;28;659733;-62
2020/12/11 01:30:10;;;;;;;158.97;42.40;;;-0.80;99.90;;;;;;4448352;28;661309;-61
2020/12/11 01:32:57;;;;;;;152.77;41.70;;;-0.80;99.90;;;;;;4453252;28;659858;-62
2020/12/11 01:35:44;;;;;;;141.37;40.90;;;-0.80;99.90;;;;;;4463165;28;661739;-61
2020/12/11 01:38:31;;;;;;;148.87;42.00;;;-0.80;99.90;;;;;;4458005;28;659663;-61
2020/12/11 01:41:19;;;;;;;146.23;42.42;;;-0.80;99.90;;;;;;4430941;28;660059;-60
2020/12/11 01:44:06;;;;;;;159.13;44.77;;;-0.80;99.90;;;;;;4453524;28;659591;-61
2020/12/11 01:46:55;;;;;;;152.97;42.97;;;-0.80;99.90;;;;;;4434339;28;660543;-62
2020/12/11 01:49:43;;;;;;;154.23;42.57;;;-0.80;99.90;;;;;;4442762;28;659866;-61
2020/12/11 01:52:29;;;;;;;166.27;42.97;;;-0.80;99.90;;;;;;4452743;28;661154;-61
2020/12/11 01:55:17;;;;;;;128.77;39.43;;;-0.80;99.90;;;;;;4464414;28;659918;-61
2020/12/11 01:58:09;;;;;;;149.23;41.90;;;-0.80;99.90;;;;;;4434521;28;661626;-61
2020/12/11 02:00:56;;;;;;;141.93;40.70;;;-0.80;99.90;;;;;;4442287;28;659462;-61
2020/12/11 02:03:43;;;;;;;160.20;44.47;;;-0.80;99.90;;;;;;4431964;28;659965;-62
2020/12/11 02:06:30;;;;;;;151.17;44.73;;;-0.80;99.90;;;;;;4464753;28;660176;-61
2020/12/11 02:09:18;;;;;;;149.60;43.37;;;-0.70;99.90;;;;;;4447017;28;659634;-62
2020/12/11 02:12:05;;;;;;;148.40;43.83;;;-0.70;99.90;;;;;;4465512;28;661166;-61
2020/12/11 02:14:53;;;;;;;157.13;46.40;;;-0.70;99.90;;;;;;4445825;28;659714;-63
2020/12/11 02:17:40;;;;;;;136.40;43.77;;;-0.70;99.90;;;;;;4456819;28;661502;-61
2020/12/11 02:20:27;;;;;;;115.70;36.53;;;-0.70;99.90;;;;;;4438261;28;659715;-62
2020/12/11 02:23:15;;;;;;;111.63;35.85;;;-0.70;99.90;;;;;;4453448;28;660398;-61
2020/12/11 02:26:02;;;;;;;106.35;34.35;;;-0.60;99.90;;;;;;4430419;28;660930;-62
2020/12/11 02:28:49;;;;;;;137.87;42.97;;;-0.60;99.90;;;;;;4469487;28;659774;-61
2020/12/11 02:31:39;;;;;;;142.67;43.37;;;-0.60;99.90;;;;;;4459103;28;659526;-61
2020/12/11 02:34:26;;;;;;;148.53;46.53;;;-0.60;99.90;;;;;;4432091;28;660492;-61
2020/12/11 02:37:13;;;;;;;131.90;40.23;;;-0.60;99.90;;;;;;4437365;28;659673;-62
2020/12/11 02:40:01;;;;;;;121.63;39.30;;;-0.60;99.90;;;;;;4467669;28;660282;-60
2020/12/11 02:42:48;;;;;;;116.60;37.80;;;-0.60;99.90;;;;;;4437948;28;661006;-61
2020/12/11 02:45:35;;;;;;;122.90;39.97;;;-0.60;99.90;;;;;;4463563;28;660367;-61
2020/12/11 02:48:22;;;;;;;108.43;37.17;;;-0.60;99.90;;;;;;4451047;28;660213;-63
2020/12/11 02:51:11;;;;;;;128.47;44.60;;;-0.50;99.90;;;;;;4462785;28;660510;-61
2020/12/11 02:53:58;;;;;;;136.93;41.83;;;-0.50;99.90;;;;;;4444982;28;660171;-63
2020/12/11 02:56:45;;;;;;;156.90;48.30;;;-0.50;99.90;;;;;;4464512;28;661114;-60
2020/12/11 02:59:32;;;;;;;154.00;48.57;;;-0.50;99.90;;;;;;4446487;28;659573;-62
2020/12/11 03:02:19;;;;;;;130.87;44.03;;;-0.50;99.90;;;;;;4459504;28;660516;-61
2020/12/11 03:05:06;;;;;;;130.20;43.72;;;-0.40;99.90;;;;;;4459197;28;660227;-61
2020/12/11 03:07:53;;;;;;;136.63;43.93;;;-0.40;99.90;;;;;;4443819;28;661389;-60
2020/12/11 03:10:40;;;;;;;122.83;40.17;;;-0.40;99.90;;;;;;4467274;28;660123;-61
2020/12/11 03:13:28;;;;;;;130.40;43.17;;;-0.40;99.90;;;;;;4448336;28;659668;-63
2020/12/11 03:16:16;;;;;;;129.37;41.87;;;-0.40;99.90;;;;;;4450101;28;660638;-61
2020/12/11 03:19:03;;;;;;;115.27;41.90;;;-0.40;99.90;;;;;;4445209;28;660068;-61
2020/12/11 03:21:50;;;;;;;133.83;42.50;;;-0.40;99.90;;;;;;4460361;28;660608;-61
2020/12/11 03:24:37;;;;;;;122.20;40.57;;;-0.40;99.90;;;;;;4440025;28;659763;-61
2020/12/11 03:27:24;;;;;;;121.57;41.57;;;-0.40;99.90;;;;;;4467441;28;661163;-61
2020/12/11 03:30:12;;;;;;;125.40;41.93;;;-0.40;99.90;;;;;;4450763;28;661099;-60
2020/12/11 03:32:59;;;;;;;114.50;38.00;;;-0.40;99.90;;;;;;4443314;28;660698;-61
2020/12/11 03:35:46;;;;;;;115.30;38.20;;;-0.40;99.90;;;;;;4455225;28;660226;-61
2020/12/11 03:38:33;;;;;;;112.93;37.37;;;-0.40;99.90;;;;;;4447439;28;660272;-61
2020/12/11 03:41:20;;;;;;;98.00;36.20;;;-0.40;99.90;;;;;;4461229;28;661000;-61
2020/12/11 03:44:07;;;;;;;106.77;37.13;;;-0.40;99.90;;;;;;4456493;28;659232;-62
2020/12/11 03:46:56;;;;;;;96.27;33.83;;;-0.30;99.90;;;;;;4462419;28;659913;-62
2020/12/11 03:49:43;;;;;;;97.43;34.77;;;-0.30;99.90;;;;;;4442270;28;658655;-61
2020/12/11 03:52:30;;;;;;;120.63;40.17;;;-0.30;99.90;;;;;;4451266;28;658900;-61
2020/12/11 03:55:17;;;;;;;205.13;63.90;;;-0.30;99.90;;;;;;4453572;28;659901;-63
2020/12/11 03:58:04;;;;;;;175.13;54.73;;;-0.30;99.90;;;;;;4449036;28;659287;-61
2020/12/11 04:00:51;;;;;;;153.90;46.00;;;-0.30;99.90;;;;;;4459686;28;659716;-61
2020/12/11 04:03:39;;;;;;;141.77;44.83;;;-0.40;99.90;;;;;;4445534;28;659652;-61
2020/12/11 04:06:26;;;;;;;153.97;44.30;;;-0.50;99.90;;;;;;4457129;28;660208;-61
2020/12/11 04:09:13;;;;;;;154.03;44.67;;;-0.60;99.90;;;;;;4446678;28;659931;-62
2020/12/11 04:11:59;;;;;;;140.63;44.43;;;-0.60;99.90;;;;;;4456790;28;659873;-61
2020/12/11 04:14:46;;;;;;;152.93;45.97;;;-0.60;99.90;;;;;;4463146;28;659345;-61
2020/12/11 04:17:33;;;;;;;160.13;46.07;;;-0.70;99.90;;;;;;4444058;28;659767;-62
2020/12/11 04:20:21;;;;;;;156.03;45.67;;;-0.70;99.90;;;;;;4462848;28;661411;-60
2020/12/11 04:23:08;;;;;;;167.90;44.43;;;-0.70;99.90;;;;;;4434854;28;659560;-61
2020/12/11 04:25:55;;;;;;;143.87;43.60;;;-0.70;99.90;;;;;;4461819;28;660861;-61
2020/12/11 04:28:42;;;;;;;149.83;44.73;;;-0.80;99.90;;;;;;4447210;28;659740;-62
2020/12/11 04:31:29;;;;;;;161.67;45.50;;;-0.80;99.90;;;;;;4458623;28;661031;-60
2020/12/11 04:34:16;;;;;;;146.25;43.92;;;-0.80;99.90;;;;;;4466681;28;660835;-60
2020/12/11 04:37:04;;;;;;;170.63;47.80;;;-0.80;99.90;;;;;;4431823;28;660293;-62
2020/12/11 04:39:51;;;;;;;166.63;49.07;;;-0.80;99.90;;;;;;4466080;28;659397;-61
2020/12/11 04:42:38;;;;;;;178.53;50.50;;;-0.80;99.90;;;;;;4429819;28;659423;-61
2020/12/11 04:45:25;;;;;;;167.07;51.37;;;-0.80;99.90;;;;;;4462293;28;660647;-61
2020/12/11 04:48:12;;;;;;;173.73;51.37;;;-0.80;99.90;;;;;;4443976;28;660098;-63
2020/12/11 04:50:59;;;;;;;161.73;48.37;;;-0.80;99.90;;;;;;4462552;28;660389;-61
2020/12/11 04:53:47;;;;;;;145.47;45.33;;;-0.80;99.90;;;;;;4457833;28;659533;-61
2020/12/11 04:56:34;;;;;;;145.53;44.93;;;-0.70;99.90;;;;;;4438114;28;661649;-61
2020/12/11 04:59:21;;;;;;;133.83;45.10;;;-0.70;99.90;;;;;;4456626;28;660994;-60
2020/12/11 05:02:12;;;;;;;145.40;45.13;;;-0.70;99.90;;;;;;4435943;28;659712;-62
2020/12/11 05:04:59;;;;;;;149.30;45.40;;;-0.70;99.90;;;;;;4435673;28;661452;-61
2020/12/11 05:07:46;;;;;;;130.37;40.37;;;-0.70;99.90;;;;;;4465147;28;659692;-61
2020/12/11 05:10:40;;;;;;;130.13;41.93;;;-0.70;99.90;;;;;;4446063;28;659720;-62
2020/12/11 05:13:27;;;;;;;136.20;41.13;;;-0.70;99.90;;;;;;4425976;28;659819;-62
2020/12/11 05:16:15;;;;;;;132.50;43.27;;;-0.70;99.90;;;;;;4465435;28;661194;-60
2020/12/11 05:19:04;;;;;;;527.23;98.90;;;-0.70;99.90;;;;;;4434458;28;659726;-63
2020/12/11 05:21:51;;;;;;;623.70;125.37;;;-0.60;99.90;;;;;;4456679;28;660165;-60
2020/12/11 05:24:42;;;;;;;522.80;102.57;;;-0.60;99.90;;;;;;4431591;28;660853;-62
2020/12/11 05:27:35;;;;;;;186.25;50.85;;;-0.60;99.90;;;;;;4437295;28;661630;-62
2020/12/11 05:30:25;;;;;;;172.53;45.93;;;-0.60;99.90;;;;;;4434335;28;659802;-62
2020/12/11 05:33:12;;;;;;;162.77;49.60;;;-0.60;99.90;;;;;;4434520;28;659499;-63
2020/12/11 05:36:02;;;;;;;165.77;50.30;;;-0.70;99.90;;;;;;4454211;28;660722;-61
2020/12/11 05:38:49;;;;;;;133.67;42.63;;;-0.80;99.90;;;;;;4431942;28;660959;-61
2020/12/11 05:41:37;;;;;;;151.03;44.00;;;-0.80;99.90;;;;;;4460997;28;659708;-60
2020/12/11 05:44:26;;;;;;;142.77;42.40;;;-1.00;99.90;;;;;;4439642;28;661135;-61
2020/12/11 05:47:20;;;;;;;245.20;54.53;;;-1.10;99.90;;;;;;4430822;28;659555;-61
2020/12/11 05:50:09;;;;;;;166.05;45.50;;;-1.20;99.90;;;;;;4416621;28;659967;-62
2020/12/11 05:52:56;;;;;;;137.90;41.43;;;-1.30;99.90;;;;;;4459860;28;659476;-61
2020/12/11 05:55:43;;;;;;;138.87;41.83;;;-1.40;99.90;;;;;;4434401;28;660081;-61
2020/12/11 05:58:30;;;;;;;130.07;40.37;;;-1.40;99.90;;;;;;4456610;28;661171;-61
2020/12/11 06:01:18;;;;;;;120.70;39.45;;;-1.60;99.90;;;;;;4432322;28;661235;-63
2020/12/11 06:04:05;;;;;;;135.83;40.30;;;-1.60;99.90;;;;;;4460249;28;660661;-61
2020/12/11 06:06:56;;;;;;;121.90;41.93;;;-1.70;99.90;;;;;;4429447;28;659991;-62
2020/12/11 06:09:43;;;;;;;115.07;39.90;;;-1.70;99.90;;;;;;4437388;28;659906;-62
2020/12/11 06:12:31;;;;;;;133.50;42.73;;;-1.80;99.90;;;;;;4455524;28;660666;-61
2020/12/11 06:15:30;;;;;;;138.98;45.33;;;-1.80;99.90;;;;;;4438152;28;660111;-61
2020/12/11 06:18:20;;;;;;;143.67;45.47;;;-1.90;99.90;;;;;;4407504;28;660639;-63
2020/12/11 06:21:07;;;;;;;163.37;50.37;;;-1.90;99.90;;;;;;4453210;28;660101;-63
2020/12/11 06:23:54;;;;;;;133.37;47.80;;;-2.00;99.90;;;;;;4462847;28;661493;-61
2020/12/11 06:26:51;;;;;;;153.63;49.25;;;-2.00;99.90;;;;;;4449032;28;659976;-62
2020/12/11 06:29:40;;;;;;;214.60;56.70;;;-2.10;99.90;;;;;;4409694;28;659829;-62
2020/12/11 06:32:42;;;;;;;190.53;54.13;;;-2.20;99.90;;;;;;4452765;28;659825;-63
2020/12/11 06:35:30;;;;;;;178.67;52.07;;;-2.30;99.90;;;;;;4415806;28;660051;-62
2020/12/11 06:38:39;;;;;;;188.32;53.67;;;-2.30;99.90;;;;;;4451991;28;659580;-63
2020/12/11 06:41:38;;;;;;;189.13;56.03;;;-2.40;99.90;;;;;;4436625;28;659821;-61
2020/12/11 06:44:25;;;;;;;189.93;55.47;;;-2.40;99.90;;;;;;4441805;28;659740;-62
2020/12/11 06:47:12;;;;;;;170.93;50.97;;;-2.40;99.90;;;;;;4444792;27;660758;-63
2020/12/11 06:50:10;;;;;;;167.43;51.35;;;-2.50;99.90;;;;;;4467033;27;660702;-61
2020/12/11 06:52:58;;;;;;;158.90;48.57;;;-2.50;99.90;;;;;;4429339;28;659534;-61
2020/12/11 06:55:49;;;;;;;166.13;48.57;;;-2.60;99.90;;;;;;4437837;28;660552;-61
2020/12/11 06:58:36;;;;;;;223.93;71.37;;;-2.60;99.90;;;;;;4435145;28;659682;-62
2020/12/11 07:01:23;;;;;;;221.93;65.80;;;-2.60;99.90;;;;;;4440500;28;660382;-62
2020/12/11 07:04:10;;;;;;;188.57;53.97;;;-2.60;99.90;;;;;;4458095;28;660089;-62
2020/12/11 07:06:57;;;;;;;196.35;58.40;;;-2.60;99.90;;;;;;4453437;28;660397;-62
2020/12/11 07:09:46;;;;;;;180.50;55.67;;;-2.70;99.90;;;;;;4469233;28;660626;-62
2020/12/11 07:12:33;;;;;;;189.37;57.53;;;-2.80;99.90;;;;;;4429247;28;660938;-61
2020/12/11 07:15:20;;;;;;;198.17;56.10;;;-2.70;99.90;;;;;;4464826;28;660628;-62
2020/12/11 07:18:13;;;;;;;177.95;54.13;;;-2.80;99.90;;;;;;4440105;28;660014;-63
2020/12/11 07:21:00;;;;;;;184.40;53.83;;;-2.70;99.90;;;;;;4439623;27;660589;-62
2020/12/11 07:23:47;;;;;;;190.13;58.33;;;-2.70;99.90;;;;;;4442713;28;659507;-62
2020/12/11 07:26:35;;;;;;;205.18;59.17;;;-2.60;99.90;;;;;;4453964;28;660650;-62
2020/12/11 07:29:22;;;;;;;207.63;61.27;;;-2.60;99.90;;;;;;4441952;28;660296;-63
2020/12/11 07:32:09;;;;;;;216.37;67.30;;;-2.50;99.90;;;;;;4453253;28;660885;-61
2020/12/11 07:34:56;;;;;;;192.00;58.73;;;-2.50;99.90;;;;;;4458813;28;660076;-62
2020/12/11 07:37:49;;;;;;;172.00;58.17;;;-2.60;99.90;;;;;;4433761;28;659577;-61
2020/12/11 07:40:36;;;;;;;169.00;56.07;;;-2.50;99.90;;;;;;4426599;28;659648;-62
2020/12/11 07:43:24;;;;;;;164.17;55.03;;;-2.50;99.90;;;;;;4433269;28;660072;-63
2020/12/11 07:46:11;;;;;;;185.27;63.63;;;-2.40;99.90;;;;;;4463282;28;659625;-62
2020/12/11 07:48:58;;;;;;;195.70;66.03;;;-2.40;99.90;;;;;;4441220;28;659881;-62
2020/12/11 07:51:45;;;;;;;192.40;64.87;;;-2.30;99.90;;;;;;4457518;28;660496;-62
2020/12/11 07:54:35;;;;;;;195.20;65.03;;;-2.20;99.90;;;;;;4441362;28;659774;-62
2020/12/11 07:57:23;;;;;;;185.10;61.70;;;-2.10;99.90;;;;;;4432303;28;660929;-63
2020/12/11 08:00:11;;;;;;;167.73;56.60;;;-2.00;99.90;;;;;;4468458;28;660503;-61
2020/12/11 08:03:04;;;;;;;146.00;51.10;;;-1.80;99.90;;;;;;4428882;28;659838;-63
2020/12/11 08:05:51;;;;;;;127.63;46.13;;;-1.70;99.90;;;;;;4434712;28;660346;-62
2020/12/11 08:08:38;;;;;;;129.93;47.70;;;-1.50;99.90;;;;;;4431137;28;659815;-62
2020/12/11 08:11:26;;;;;;;122.77;44.53;;;-1.40;99.90;;;;;;4451056;28;659622;-62
2020/12/11 08:14:13;;;;;;;128.17;45.67;;;-1.30;99.90;;;;;;4429830;28;660225;-63
2020/12/11 08:17:03;;;;;;;150.03;51.50;;;-1.00;99.90;;;;;;4456942;28;661368;-61
2020/12/11 08:19:57;;;;;;;129.50;48.07;;;-0.70;99.90;;;;;;4434706;28;660403;-62
2020/12/11 08:22:45;;;;;;;140.30;49.47;;;-0.30;99.90;;;;;;4410206;28;659692;-62
2020/12/11 08:25:32;;;;;;;162.70;55.23;;;0.00;99.90;;;;;;4449592;28;660059;-63
2020/12/11 08:28:19;;;;;;;177.68;58.72;;;0.40;99.90;;;;;;4460987;28;658493;-62
2020/12/11 08:31:27;;;;;;;154.57;54.70;;;0.70;99.90;;;;;;4451549;28;658256;-62
2020/12/11 08:34:15;;;;;;;156.13;57.03;;;1.00;99.90;;;;;;4415764;28;659322;-62
2020/12/11 08:37:03;;;;;;;152.03;54.73;;;1.50;99.90;;;;;;4434292;28;659871;-62
2020/12/11 08:39:50;;;;;;;147.63;56.40;;;2.00;99.90;;;;;;4458258;28;659300;-62
2020/12/11 08:42:43;;;;;;;135.77;54.00;;;2.60;99.90;;;;;;4437699;28;659198;-63
2020/12/11 08:45:33;;;;;;;125.43;46.53;;;3.20;99.90;;;;;;4401979;28;775536;-63
2020/12/11 08:51:29;;;;;;;100.20;40.80;;;4.30;99.90;;;;;;4416382;28;658889;-64
2020/12/11 08:54:17;;;;;;;86.30;36.10;;;4.80;99.90;;;;;;4463923;28;659068;-64
2020/12/11 08:57:04;;;;;;;78.73;34.83;;;5.00;99.90;;;;;;4427416;28;659150;-63
2020/12/11 08:59:51;;;;;;;81.27;33.80;;;5.50;99.90;;;;;;4460836;28;657838;-63
2020/12/11 09:02:38;;;;;;;78.17;32.30;;;6.00;99.90;;;;;;4434084;28;657924;-62
2020/12/11 09:05:25;;;;;;;74.37;33.03;;;6.40;99.90;;;;;;4457849;28;657494;-62
2020/12/11 09:08:13;;;;;;;83.63;34.63;;;6.70;99.90;;;;;;4445679;28;657753;-63
2020/12/11 09:11:00;;;;;;;86.47;35.40;;;7.10;99.90;;;;;;4454629;28;659826;-63
2020/12/11 09:13:47;;;;;;;89.70;34.93;;;7.30;99.90;;;;;;4441344;28;657828;-64
2020/12/11 09:16:34;;;;;;;77.63;33.47;;;7.40;99.90;;;;;;4456171;28;657668;-63
2020/12/11 09:19:21;;;;;;;66.63;30.50;;;7.90;99.90;;;;;;4452977;28;658759;-63
2020/12/11 09:22:08;;;;;;;120.70;48.80;;;8.10;96.60;;;;;;4435867;28;657781;-63
2020/12/11 09:24:56;;;;;;;112.63;48.07;;;8.50;92.90;;;;;;4457963;27;659967;-63
2020/12/11 09:27:44;;;;;;;108.40;45.73;;;8.80;90.70;;;;;;4430816;28;660713;-63
2020/12/11 09:30:34;;;;;;;102.10;46.70;;;9.10;86.80;;;;;;4462960;28;659120;-62
2020/12/11 09:33:23;;;;;;;100.07;43.90;;;9.20;82.90;;;;;;4429776;28;658949;-63
2020/12/11 09:36:10;;;;;;;107.50;45.50;;;8.60;87.80;;;;;;4426359;28;660119;-62
2020/12/11 09:38:57;;;;;;;102.77;45.70;;;9.00;75.90;;;;;;4438121;28;658629;-62
2020/12/11 09:41:51;;;;;;;102.00;43.70;;;8.60;80.40;;;;;;4462921;28;658535;-60
2020/12/11 09:44:47;;;;;;;97.40;44.10;;;8.50;82.50;;;;;;4414162;28;659082;-59
2020/12/11 09:48:03;;;;;;;107.70;45.33;;;8.30;85.40;;;;;;4441402;28;658559;-60
2020/12/11 09:50:59;;;;;;;103.27;45.33;;;8.20;82.30;;;;;;4440381;28;660179;-60
2020/12/11 09:54:06;;;;;;;101.90;44.43;;;8.40;81.00;;;;;;4443720;28;659152;-59
2020/12/11 09:56:55;;;;;;;77.13;32.53;;;8.10;84.00;;;;;;4441959;28;658441;-61
2020/12/11 09:59:48;;;;;;;64.07;29.13;;;8.80;85.80;;;;;;4448421;28;657610;-61
2020/12/11 10:02:47;;;;;;;57.00;26.80;;;9.50;71.70;;;;;;4438662;28;658369;-60
2020/12/11 10:05:34;;;;;;;54.90;25.37;;;10.10;75.20;;;;;;4418217;28;659374;-59
2020/12/11 10:08:21;;;;;;;52.83;25.27;;;10.30;67.30;;;;;;4456610;28;658711;-59
2020/12/11 10:11:08;;;;;;;51.87;25.80;;;10.70;69.50;;;;;;4440393;28;659052;-61
2020/12/11 10:14:12;;;;;;;54.43;25.20;;;11.40;65.50;;;;;;4463395;28;659390;-59
2020/12/11 10:16:59;;;;;;;57.37;27.57;;;12.10;61.30;;;;;;4436156;28;659399;-60
2020/12/11 10:19:48;;;;;;;51.70;23.87;;;12.80;59.30;;;;;;4449595;28;659493;-59
2020/12/11 10:22:35;;;;;;;47.37;24.53;;;12.80;55.00;;;;;;4437606;28;659374;-60
2020/12/11 10:25:22;;;;;;;50.07;23.80;;;12.40;57.70;;;;;;4460083;28;658812;-61
2020/12/11 10:28:09;;;;;;;55.43;27.20;;;12.70;57.40;;;;;;4465026;28;658717;-60
2020/12/11 10:30:57;;;;;;;44.00;22.17;;;13.80;54.50;;;;;;4459476;28;658388;-60
2020/12/11 10:33:45;;;;;;;39.50;21.50;;;14.20;51.90;;;;;;4444295;28;659694;-59
2020/12/11 10:36:38;;;;;;;44.30;21.60;;;14.30;52.60;;;;;;4445723;28;658523;-60
2020/12/11 10:39:25;;;;;;;46.13;24.23;;;13.80;51.70;;;;;;4441202;28;659943;-59
2020/12/11 10:42:12;;;;;;;54.00;26.10;;;13.00;53.60;;;;;;4442480;28;658626;-60
2020/12/11 10:44:59;;;;;;;52.70;25.13;;;13.10;55.60;;;;;;4460065;28;659003;-59
2020/12/11 10:47:47;;;;;;;48.17;24.80;;;13.60;54.20;;;;;;4456221;28;659738;-59
2020/12/11 10:50:34;;;;;;;58.17;28.47;;;14.00;53.20;;;;;;4425065;28;659513;-59
2020/12/11 10:53:21;;;;;;;67.77;30.83;;;14.40;50.90;;;;;;4457527;28;659301;-59
2020/12/11 10:56:08;;;;;;;71.63;35.10;;;15.20;50.30;;;;;;4429828;28;659185;-59
2020/12/11 10:58:55;;;;;;;59.67;30.33;;;14.30;50.00;;;;;;4451633;28;660176;-59
2020/12/11 11:01:42;;;;;;;62.87;30.63;;;14.70;50.20;;;;;;4436987;28;658331;-60
2020/12/11 11:04:30;;;;;;;61.50;31.17;;;14.90;50.10;;;;;;4461224;28;659060;-59
2020/12/11 11:07:23;;;;;;;61.70;28.97;;;15.70;47.40;;;;;;4429029;28;658513;-60
2020/12/11 11:10:17;;;;;;;59.80;31.40;;;15.50;47.90;;;;;;4436145;28;659784;-59
2020/12/11 11:13:14;;;;;;;42.67;22.47;;;15.10;48.50;;;;;;4426372;28;660485;-59
2020/12/11 11:16:02;;;;;;;38.90;19.43;;;14.60;49.70;;;;;;4430552;28;658677;-59
2020/12/11 11:18:53;;;;;;;34.47;17.80;;;14.80;47.90;;;;;;4432138;28;660049;-58
2020/12/11 11:27:55;;;;;;;23.57;13.77;;;15.20;47.60;;;;;;4442089;28;658513;-59
2020/12/11 11:30:42;;;;;;;28.70;15.87;;;15.60;46.00;;;;;;4448367;28;658599;-61
2020/12/11 11:33:29;;;;;;;45.67;20.63;;;15.50;46.50;;;;;;4462073;28;658621;-59
2020/12/11 11:36:16;;;;;;;66.33;28.20;;;15.40;48.10;;;;;;4460115;28;660192;-59
2020/12/11 11:39:04;;;;;;;58.23;26.33;;;15.90;46.40;;;;;;4446685;28;658429;-59
2020/12/11 11:41:54;;;;;;;64.17;29.03;;;15.80;45.40;;;;;;4453888;28;658679;-59
2020/12/11 11:44:54;;;;;;;94.17;37.43;;;15.60;46.10;;;;;;4429851;28;658331;-59
2020/12/11 11:47:43;;;;;;;111.90;43.20;;;16.20;44.60;;;;;;4428090;28;658358;-58
2020/12/11 11:50:37;;;;;;;79.07;36.97;;;17.40;42.10;;;;;;4436658;28;659775;-58
2020/12/11 11:53:24;;;;;;;74.53;38.33;;;17.40;42.00;;;;;;4415942;28;659685;-59
2020/12/11 11:56:12;;;;;;;72.63;36.37;;;17.40;41.20;;;;;;4454654;28;658740;-59
2020/12/11 11:58:59;;;;;;;74.03;40.07;;;17.90;40.10;;;;;;4430506;28;660563;-59
2020/12/11 12:05:18;;;;;;;78.53;39.27;;;18.30;39.30;;;;;;4259716;29;658884;-60
2020/12/11 12:08:05;;;;;;;81.17;40.57;;;18.00;38.60;;;;;;4281262;29;659674;-59
2020/12/11 12:10:52;;;;;;;85.77;42.00;;;17.30;39.10;;;;;;4264362;29;658592;-60
2020/12/11 12:13:40;;;;;;;71.00;38.50;;;16.80;38.80;;;;;;4277803;29;659055;-58
2020/12/11 12:16:27;;;;;;;81.33;41.23;;;16.10;41.00;;;;;;4261176;29;659174;-60
2020/12/11 12:19:17;;;;;;;84.97;42.17;;;14.70;41.30;;;;;;4282307;29;659673;-58
2020/12/11 12:31:38;;;;;;;80.73;40.27;;;13.80;45.90;;;;;;4255107;29;658436;-60
2020/12/11 12:34:45;;;;;;;78.23;40.47;;;13.70;45.40;;;;;;4255521;29;660086;-58
2020/12/11 12:37:42;;;;;;;81.93;40.50;;;14.60;44.60;;;;;;4233877;29;658646;-59
2020/12/11 12:43:37;;;;;;;85.33;40.73;;;15.40;41.50;;;;;;4232681;29;658796;-59
2020/12/11 12:46:24;;;;;;;86.30;40.27;;;13.70;43.00;;;;;;4356771;28;658497;-58
2020/12/11 12:49:12;;;;;;;85.57;40.63;;;11.80;47.70;;;;;;4383300;28;660059;-58
2020/12/11 12:51:59;;;;;;;95.03;39.33;;;10.20;50.70;;;;;;4370321;28;658986;-57
2020/12/11 12:54:46;;;;;;;98.63;42.17;;;9.70;53.40;;;;;;4387968;28;658455;-58
2020/12/11 12:57:36;;;;;;;103.50;40.97;;;8.00;58.10;;;;;;4371673;28;657864;-58
2020/12/11 13:00:28;;;;;;;96.07;37.60;;;6.50;69.10;;;;;;4370590;28;658684;-57
2020/12/11 13:03:32;;;;;;;84.37;36.17;;;5.20;76.60;;;;;;4372574;28;658099;-58
2020/12/11 13:06:21;;;;;;;86.53;35.33;;;4.30;80.30;;;;;;4342199;28;658900;-59
2020/12/11 13:09:08;;;;;;;87.93;35.27;;;3.50;86.60;;;;;;4375352;28;657701;-61
2020/12/11 13:11:55;;;;;;;90.53;35.73;;;3.20;91.00;;;;;;4391764;28;658625;-60
2020/12/11 13:14:42;;;;;;;118.55;40.25;;;3.30;93.80;;;;;;4371554;28;659152;-61
2020/12/11 13:17:29;;;;;;;105.43;38.43;;;2.70;99.90;;;;;;4393053;28;658737;-59
2020/12/11 13:20:24;;;;;;;102.70;38.53;;;2.20;99.90;;;;;;4391012;28;660005;-60
2020/12/11 13:29:17;;;;;;;134.97;33.37;;;1.90;99.90;;;;;;4407481;28;658596;-61
2020/12/11 13:32:04;;;;;;;112.20;36.03;;;1.70;99.90;;;;;;4449779;28;658651;-60
2020/12/11 13:34:51;;;;;;;118.33;34.60;;;1.50;99.90;;;;;;4435426;28;659727;-60
2020/12/11 13:37:39;;;;;;;151.07;33.53;;;1.30;99.90;;;;;;4423136;28;659440;-61
2020/12/11 13:40:26;;;;;;;102.13;30.03;;;1.10;99.90;;;;;;4432459;28;659191;-60
2020/12/11 13:43:13;;;;;;;123.13;30.97;;;1.10;99.90;;;;;;4413538;28;658708;-60
2020/12/11 13:46:00;;;;;;;116.23;32.00;;;1.00;99.90;;;;;;4453725;28;659083;-61
2020/12/11 13:48:47;;;;;;;90.20;28.60;;;0.60;99.90;;;;;;4433629;28;659390;-60
2020/12/11 13:51:34;;;;;;;109.50;29.37;;;0.60;99.90;;;;;;4459288;28;659461;-60
2020/12/11 13:54:22;;;;;;;103.37;28.60;;;0.60;99.90;;;;;;4463200;28;658983;-59
2020/12/11 13:57:09;;;;;;;103.20;30.70;;;0.40;99.90;;;;;;4443231;28;659053;-60
2020/12/11 14:00:00;;;;;;;115.73;38.97;;;0.20;99.90;;;;;;4459360;28;659279;-60
2020/12/11 14:02:47;;;;;;;101.47;29.03;;;0.20;99.90;;;;;;4415135;28;658871;-61
2020/12/11 14:05:34;;;;;;;103.30;28.67;;;0.20;99.90;;;;;;4460965;28;658645;-60
2020/12/11 14:08:21;;;;;;;96.17;27.93;;;0.00;99.90;;;;;;4460208;28;658458;-60
2020/12/11 14:11:09;;;;;;;94.90;34.10;;;0.00;99.90;;;;;;4434083;28;657613;-60
2020/12/11 14:13:57;;;;;;;80.63;26.10;;;-0.10;99.90;;;;;;4459829;28;658862;-60
2020/12/11 14:16:46;;;;;;;102.80;29.90;;;-0.10;99.90;;;;;;4428924;28;660343;-61
2020/12/11 14:22:49;;;;;;;107.23;27.83;;;-0.30;99.90;;;;;;4364268;28;659909;-60
2020/12/11 14:25:36;;;;;;;88.37;23.10;;;-0.30;99.90;;;;;;4373970;28;659236;-59
2020/12/11 14:28:23;;;;;;;143.73;38.70;;;-0.40;99.90;;;;;;4370300;28;658765;-61
2020/12/11 14:31:11;;;;;;;118.40;32.73;;;-0.50;99.90;;;;;;4388841;28;660722;-60
2020/12/11 14:33:58;;;;;;;137.30;35.87;;;-0.50;99.90;;;;;;4371949;28;660827;-60